Time;durP1;ratioP1;P1;durP2;ratioP2;P2;SDS_P1;SDS_P2;PMS_P1;PMS_P2;Temp;Humidity;BMP_temperature;BMP_pressure;BME280_temperature;BME280_humidity;BME280_pressure;Samples;Min_cycle;Max_cycle;Signal;HPM_P1;HPM_P2
2024/03/09 00:00:39;;;;;;;34.92;15.00;;;;;;;5.16;100.00;97828.75;4949961;28;20129;-76
2024/03/09 00:03:06;;;;;;;28.17;13.60;;;;;;;5.15;100.00;97828.81;4955298;28;20050;-76
2024/03/09 00:05:32;;;;;;;32.47;13.13;;;;;;;5.18;100.00;97841.94;4938816;29;20137;-77
2024/03/09 00:08:01;;;;;;;30.77;14.05;;;;;;;5.10;100.00;97830.75;4943583;29;20520;-76
2024/03/09 00:10:28;;;;;;;29.40;13.75;;;;;;;5.15;100.00;97836.75;4938312;29;20585;-75
2024/03/09 00:12:54;;;;;;;33.20;13.30;;;;;;;5.05;100.00;97830.03;4938793;29;20019;-75
2024/03/09 00:15:23;;;;;;;26.48;12.73;;;;;;;5.03;100.00;97831.88;4942335;28;20027;-76
2024/03/09 00:17:51;;;;;;;29.90;13.57;;;;;;;5.06;100.00;97830.00;4946481;28;20413;-74
2024/03/09 00:20:21;;;;;;;28.15;13.48;;;;;;;5.03;100.00;97831.88;4942369;29;20117;-76
2024/03/09 00:22:47;;;;;;;27.77;12.68;;;;;;;5.05;100.00;97824.75;4943547;28;20035;-76
2024/03/09 00:25:14;;;;;;;31.23;13.40;;;;;;;5.10;100.00;97825.47;4957472;28;20041;-77
2024/03/09 00:27:39;;;;;;;31.55;13.70;;;;;;;5.04;100.00;97813.28;4957850;28;20035;-76
2024/03/09 00:30:10;;;;;;;28.35;14.10;;;;;;;5.03;100.00;97805.38;4938403;29;20501;-76
2024/03/09 00:32:38;;;;;;;29.55;13.30;;;;;;;5.00;100.00;97810.78;4945577;28;20101;-76
2024/03/09 00:35:06;;;;;;;27.08;12.60;;;;;;;4.92;100.00;97813.72;4938981;29;20035;-75
2024/03/09 00:37:32;;;;;;;33.42;14.20;;;;;;;4.92;100.00;97813.72;4938280;29;20027;-75
2024/03/09 00:39:58;;;;;;;33.10;14.05;;;;;;;4.99;100.00;97809.06;4966064;28;20035;-75
2024/03/09 00:42:25;;;;;;;36.63;14.18;;;;;;;4.92;100.00;97803.13;4946972;28;20451;-76
2024/03/09 00:44:51;;;;;;;27.35;13.48;;;;;;;5.00;100.00;97805.50;4961416;28;20058;-75
2024/03/09 00:47:17;;;;;;;31.05;13.63;;;;;;;4.89;100.00;97800.59;4957106;28;20123;-75
2024/03/09 00:49:43;;;;;;;28.10;13.02;;;;;;;4.89;100.00;97808.53;4957271;28;20061;-75
2024/03/09 00:52:10;;;;;;;33.08;13.23;;;;;;;4.88;100.00;97801.50;4945085;28;20495;-75
2024/03/09 00:54:37;;;;;;;40.47;15.55;;;;;;;4.84;100.00;97795.44;4948720;28;20082;-76
2024/03/09 00:57:03;;;;;;;33.65;14.57;;;;;;;4.82;100.00;97791.13;4951217;28;20031;-76
2024/03/09 00:59:30;;;;;;;28.63;12.90;;;;;;;4.78;100.00;97795.66;4953973;29;20086;-75
2024/03/09 01:02:01;;;;;;;31.33;13.98;;;;;;;4.72;100.00;97792.34;4953654;28;20138;-75
2024/03/09 01:04:27;;;;;;;32.45;14.85;;;;;;;4.64;100.00;97781.16;4945575;29;20035;-76
2024/03/09 01:06:54;;;;;;;34.17;14.38;;;;;;;4.49;100.00;97787.84;4945740;29;20038;-76
2024/03/09 01:09:20;;;;;;;30.95;14.75;;;;;;;4.46;100.00;97784.44;4945330;28;20061;-76
2024/03/09 01:11:48;;;;;;;35.20;14.45;;;;;;;4.43;100.00;97782.75;4956991;28;20023;-76
2024/03/09 01:14:15;;;;;;;31.75;14.43;;;;;;;4.31;100.00;97785.81;4957897;28;20038;-75
2024/03/09 01:16:40;;;;;;;33.97;15.05;;;;;;;4.23;100.00;97785.22;4955745;28;20490;-75
2024/03/09 01:19:06;;;;;;;42.60;17.45;;;;;;;4.19;100.00;97788.84;4952592;28;20039;-75
2024/03/09 01:21:33;;;;;;;40.88;16.65;;;;;;;4.14;100.00;97781.09;4947292;29;20031;-76
2024/03/09 01:24:04;;;;;;;37.72;17.20;;;;;;;4.12;100.00;97782.06;4937678;29;20513;-76
2024/03/09 01:26:30;;;;;;;37.13;16.25;;;;;;;4.05;100.00;97775.22;4943340;28;20078;-76
2024/03/09 01:28:56;;;;;;;32.47;15.30;;;;;;;4.07;100.00;97786.63;4948672;28;20478;-75
2024/03/09 01:31:27;;;;;;;38.40;16.25;;;;;;;3.96;100.00;97786.09;4972525;28;20101;-75
2024/03/09 01:33:54;;;;;;;37.77;17.23;;;;;;;3.95;100.00;97784.38;4934267;29;20051;-75
2024/03/09 01:36:20;;;;;;;36.88;14.50;;;;;;;3.80;100.00;97786.59;4948042;28;20489;-75
2024/03/09 01:38:48;;;;;;;32.55;13.40;;;;;;;3.76;100.00;97790.25;4952082;28;20097;-74
2024/03/09 01:41:14;;;;;;;24.35;11.70;;;;;;;3.74;100.00;97784.16;4960046;28;20094;-75
2024/03/09 01:43:40;;;;;;;25.65;11.52;;;;;;;3.76;100.00;97790.25;4946334;29;20039;-76
2024/03/09 01:46:06;;;;;;;29.80;12.43;;;;;;;3.73;100.00;97790.34;4953221;28;20053;-75
2024/03/09 01:48:32;;;;;;;28.70;12.48;;;;;;;3.71;100.00;97788.66;4936812;28;20031;-76
2024/03/09 01:50:58;;;;;;;25.95;12.18;;;;;;;3.67;100.00;97793.19;4952554;28;20034;-75
2024/03/09 01:53:25;;;;;;;30.45;14.65;;;;;;;3.61;100.00;97785.44;4952631;28;20498;-75
2024/03/09 01:55:51;;;;;;;27.88;12.80;;;;;;;3.53;100.00;97797.16;4959260;28;21339;-76
2024/03/09 01:58:21;;;;;;;26.92;13.90;;;;;;;3.49;100.00;97792.88;4955644;28;20030;-75
2024/03/09 02:00:56;;;;;;;29.10;12.43;;;;;;;3.45;100.00;97797.38;4946377;29;20035;-77
2024/03/09 02:03:25;;;;;;;30.45;14.13;;;;;;;3.33;100.00;97789.81;4948995;29;20042;-75
2024/03/09 02:05:50;;;;;;;28.58;12.68;;;;;;;3.32;100.00;97792.50;4936798;29;20054;-76
2024/03/09 02:08:19;;;;;;;26.40;12.23;;;;;;;3.26;100.00;97801.50;4968504;28;20066;-76
2024/03/09 02:10:47;;;;;;;33.33;14.10;;;;;;;3.12;100.00;97795.72;4956232;28;20031;-76
2024/03/09 02:13:15;;;;;;;30.65;14.38;;;;;;;3.01;100.00;97793.41;4948253;28;20410;-76
2024/03/09 02:15:47;;;;;;;34.63;15.27;;;;;;;2.91;100.00;97796.31;4960937;28;20042;-76
2024/03/09 02:18:13;;;;;;;35.05;15.25;;;;;;;2.84;100.00;97800.03;4946615;28;20038;-76
2024/03/09 02:20:38;;;;;;;30.08;13.90;;;;;;;2.74;100.00;97789.72;4944118;29;20031;-75
2024/03/09 02:23:08;;;;;;;28.83;12.25;;;;;;;2.71;100.00;97803.00;4936150;29;20396;-75
2024/03/09 02:25:35;;;;;;;29.50;13.18;;;;;;;2.63;100.00;97789.16;4955670;28;20479;-75
2024/03/09 02:28:02;;;;;;;30.35;13.70;;;;;;;2.58;100.00;97791.06;4951628;28;20050;-75
2024/03/09 02:30:29;;;;;;;35.88;15.50;;;;;;;2.56;100.00;97800.78;4963587;28;20380;-75
2024/03/09 02:32:57;;;;;;;39.70;13.93;;;;;;;2.60;100.00;97797.16;4963264;28;20449;-75
2024/03/09 02:35:23;;;;;;;32.38;14.88;;;;;;;2.59;100.00;97795.41;4965379;28;20034;-77
2024/03/09 02:37:48;;;;;;;31.40;14.50;;;;;;;2.61;100.00;97790.97;4948821;28;20042;-75
2024/03/09 02:40:14;;;;;;;34.47;15.57;;;;;;;2.52;100.00;97782.44;4943181;28;20130;-75
2024/03/09 02:45:28;;;;;;;34.60;15.30;;;;;;;2.54;100.00;97783.25;4959304;28;20094;-75
2024/03/09 02:47:54;;;;;;;34.35;15.18;;;;;;;2.54;100.00;97785.91;4963040;28;20035;-76
2024/03/09 02:50:20;;;;;;;34.30;15.10;;;;;;;2.56;100.00;97794.63;4963077;28;20459;-76
2024/03/09 02:52:46;;;;;;;30.83;13.73;;;;;;;2.41;100.00;97781.84;4950467;28;20097;-76
2024/03/09 02:55:12;;;;;;;34.15;13.65;;;;;;;2.32;100.00;97790.88;4947406;28;20082;-76
2024/03/09 02:57:40;;;;;;;31.30;15.30;;;;;;;2.19;100.00;97789.44;4936000;29;20063;-76
2024/03/09 03:00:11;;;;;;;36.35;15.77;;;;;;;2.20;100.00;97791.19;4947778;28;20061;-76
2024/03/09 03:05:23;;;;;;;27.88;13.65;;;;;;;2.15;100.00;97798.34;4967135;28;20097;-76
2024/03/09 03:07:49;;;;;;;40.75;14.75;;;;;;;2.10;100.00;97784.38;4946964;28;20045;-77
2024/03/09 03:10:15;;;;;;;34.00;14.27;;;;;;;2.04;100.00;97789.81;4943696;29;20415;-76
2024/03/09 03:12:41;;;;;;;31.35;14.02;;;;;;;2.07;100.00;97784.47;4955399;28;20027;-75
2024/03/09 03:15:10;;;;;;;33.25;13.27;;;;;;;1.95;100.00;97785.63;4951290;29;20027;-75
2024/03/09 03:17:36;;;;;;;34.53;14.88;;;;;;;1.94;100.00;97777.78;4962016;28;20026;-77
2024/03/09 03:20:07;;;;;;;34.58;14.73;;;;;;;2.00;100.00;97793.44;4961163;28;20031;-75
2024/03/09 03:22:34;;;;;;;35.75;14.38;;;;;;;1.98;100.00;97789.97;4947625;28;20031;-76
2024/03/09 03:24:59;;;;;;;33.63;14.52;;;;;;;1.96;100.00;97792.66;4947645;28;20137;-76
2024/03/09 03:27:25;;;;;;;32.35;14.48;;;;;;;1.90;100.00;97782.25;4950552;28;20117;-77
2024/03/09 03:29:56;;;;;;;34.38;14.27;;;;;;;1.90;100.00;97787.53;4951872;28;20126;-75
2024/03/09 03:32:22;;;;;;;41.67;14.75;;;;;;;1.79;100.00;97794.81;4946956;29;20567;-76
2024/03/09 03:34:49;;;;;;;35.08;14.23;;;;;;;1.67;100.00;97781.03;4946522;28;20122;-74
2024/03/09 03:37:17;;;;;;;37.92;15.98;;;;;;;1.71;100.00;97798.53;4971721;28;20352;-76
2024/03/09 03:39:44;;;;;;;35.42;14.63;;;;;;;1.67;100.00;97796.84;4961285;28;20114;-76
2024/03/09 03:42:12;;;;;;;35.80;13.32;;;;;;;1.61;100.00;97785.56;4953283;28;20042;-76
2024/03/09 03:44:39;;;;;;;34.35;13.68;;;;;;;1.58;100.00;97796.19;4945006;28;20058;-76
2024/03/09 03:47:06;;;;;;;37.55;14.45;;;;;;;1.50;100.00;97803.41;4959548;28;20027;-76
2024/03/09 03:49:31;;;;;;;33.33;13.55;;;;;;;1.42;100.00;97773.69;4965066;28;20058;-77
2024/03/09 03:51:58;;;;;;;33.88;13.70;;;;;;;1.58;100.00;97798.81;4948181;29;20451;-76
2024/03/09 03:54:23;;;;;;;36.83;13.80;;;;;;;1.52;100.00;97791.03;4936521;28;20141;-75
2024/03/09 03:56:49;;;;;;;35.65;13.82;;;;;;;1.48;100.00;97788.50;4946753;29;20137;-76
2024/03/09 03:59:15;;;;;;;36.90;14.38;;;;;;;1.45;100.00;97786.81;4949218;28;20038;-76
2024/03/09 04:01:41;;;;;;;37.70;15.68;;;;;;;1.48;100.00;97793.75;4954745;28;20035;-76
2024/03/09 04:04:06;;;;;;;39.85;15.13;;;;;;;1.55;100.00;97798.88;4952907;28;20110;-75
2024/03/09 04:06:33;;;;;;;52.92;15.55;;;;;;;1.50;100.00;97791.97;4950784;28;20039;-76
2024/03/09 04:08:59;;;;;;;42.45;16.60;;;;;;;1.48;100.00;97780.59;4971110;28;20525;-75
2024/03/09 04:11:32;;;;;;;54.22;19.95;;;;;;;1.50;100.00;97786.72;4974014;28;20161;-75
2024/03/09 04:13:58;;;;;;;54.10;18.98;;;;;;;1.47;100.00;97786.78;4967199;28;20077;-76
2024/03/09 04:16:23;;;;;;;51.20;19.80;;;;;;;1.44;100.00;97785.09;4966208;28;20031;-76
2024/03/09 04:18:49;;;;;;;48.15;19.15;;;;;;;1.39;100.00;97773.75;4938152;29;20031;-76
2024/03/09 04:21:16;;;;;;;58.08;21.45;;;;;;;1.38;100.00;97772.06;4963047;28;20027;-76
2024/03/09 04:23:45;;;;;;;55.47;20.48;;;;;;;1.43;100.00;97785.09;4946491;28;20028;-76
2024/03/09 04:26:14;;;;;;;59.08;21.80;;;;;;;1.38;100.00;97777.31;4967113;28;20047;-77
2024/03/09 04:28:40;;;;;;;55.15;20.90;;;;;;;1.36;100.00;97794.91;4938423;28;20038;-77
2024/03/09 04:31:06;;;;;;;66.35;24.80;;;;;;;1.34;100.00;97783.53;4945177;28;20031;-77
2024/03/09 04:33:33;;;;;;;59.72;23.63;;;;;;;1.34;100.00;97775.63;4948321;28;20027;-76
2024/03/09 04:35:59;;;;;;;63.47;24.30;;;;;;;1.33;100.00;97784.44;4951527;28;20113;-75
2024/03/09 04:38:25;;;;;;;55.55;20.77;;;;;;;1.33;100.00;97788.84;4949764;28;20038;-76
2024/03/09 04:40:51;;;;;;;66.57;22.60;;;;;;;1.40;100.00;97793.94;4954494;28;20038;-76
2024/03/09 04:43:18;;;;;;;60.05;22.02;;;;;;;1.33;100.00;97779.16;4962383;28;20037;-76
2024/03/09 04:45:45;;;;;;;54.40;22.80;;;;;;;1.38;100.00;97784.34;4949578;28;20133;-76
2024/03/09 04:48:13;;;;;;;57.38;21.67;;;;;;;1.37;100.00;97780.84;4949308;28;20034;-77
2024/03/09 04:50:41;;;;;;;64.25;21.17;;;;;;;1.36;100.00;97794.91;4941257;28;20037;-76
2024/03/09 04:53:08;;;;;;;62.78;21.17;;;;;;;1.39;100.00;97794.84;4943076;29;20031;-75
2024/03/09 04:55:35;;;;;;;53.35;20.60;;;;;;;1.31;100.00;97796.78;4947539;28;20065;-75
2024/03/09 04:58:13;;;;;;;54.10;21.52;;;;;;;1.32;100.00;97793.25;4943617;29;20511;-75
2024/03/09 05:00:39;;;;;;;51.60;19.48;;;;;;;1.40;100.00;97796.59;4941380;28;20035;-75
2024/03/09 05:03:06;;;;;;;53.15;19.52;;;;;;;1.32;100.00;97784.50;4950954;29;20031;-76
2024/03/09 05:05:32;;;;;;;48.53;20.13;;;;;;;1.51;100.00;97797.19;4947199;28;20038;-76
2024/03/09 05:07:58;;;;;;;53.70;21.25;;;;;;;1.44;100.00;97782.44;4952157;29;20614;-75
2024/03/09 05:10:23;;;;;;;43.63;19.98;;;;;;;1.51;100.00;97768.22;4961793;28;20042;-76
2024/03/09 05:12:56;;;;;;;54.00;20.20;;;;;;;1.61;100.00;97785.56;4956691;28;20505;-75
2024/03/09 05:15:25;;;;;;;51.90;19.75;;;;;;;1.74;100.00;97787.91;4965071;28;20027;-76
2024/03/09 05:18:00;;;;;;;61.47;20.38;;;;;;;1.89;100.00;97796.34;4945804;28;20035;-76
2024/03/09 05:20:29;;;;;;;46.65;19.10;;;;;;;1.89;100.00;97791.06;4938113;28;20039;-76
2024/03/09 05:22:59;;;;;;;69.18;23.15;;;;;;;2.06;100.00;97806.50;4960487;28;20035;-75
2024/03/09 05:25:25;;;;;;;59.45;21.85;;;;;;;2.10;100.00;97805.50;4937507;29;20035;-75
2024/03/09 05:27:52;;;;;;;48.50;19.65;;;;;;;2.32;100.00;97801.41;4940756;28;20513;-76
2024/03/09 05:30:20;;;;;;;43.10;18.60;;;;;;;2.52;100.00;97793.84;4964558;28;20034;-76
2024/03/09 05:33:06;;;;;;;44.88;18.85;;;;;;;2.54;100.00;97794.69;4945046;29;20039;-77
2024/03/09 05:35:34;;;;;;;39.28;17.70;;;;;;;2.72;100.00;97786.28;4955234;28;20030;-76
2024/03/09 05:38:01;;;;;;;45.53;19.73;;;;;;;3.36;100.00;97799.41;4949270;28;20039;-76
2024/03/09 05:40:29;;;;;;;40.22;18.73;;;;;;;3.68;100.00;97789.63;4955911;28;20031;-77
2024/03/09 05:42:55;;;;;;;45.25;19.85;;;;;;;3.72;100.00;97782.47;4937108;29;20427;-75
2024/03/09 05:45:22;;;;;;;46.70;22.15;;;;;;;3.92;100.00;97779.16;4943727;28;20033;-76
2024/03/09 05:47:50;;;;;;;56.03;22.55;;;;;;;4.40;100.00;97772.25;4964118;28;20057;-75
2024/03/09 05:50:19;;;;;;;52.25;24.48;;;;;;;5.15;100.00;97768.69;4956159;28;20498;-76
2024/03/09 05:52:52;;;;;;;52.67;24.65;;;;;;;6.38;100.00;97777.97;4963869;28;20027;-76
2024/03/09 05:55:19;;;;;;;54.83;24.60;;;;;;;6.87;100.00;97760.81;4948607;28;20055;-76
2024/03/09 05:57:48;;;;;;;62.00;29.67;;;;;;;6.49;100.00;97743.00;4955901;28;20027;-76
2024/03/09 06:00:25;;;;;;;63.40;29.10;;;;;;;6.30;100.00;97750.88;4956555;28;20039;-76
2024/03/09 06:02:54;;;;;;;49.92;26.25;;;;;;;5.88;100.00;97761.44;4947656;28;20042;-75
2024/03/09 06:05:21;;;;;;;58.40;28.05;;;;;;;5.72;100.00;97772.72;4965810;28;20562;-76
2024/03/09 06:07:47;;;;;;;57.28;27.17;;;;;;;5.69;100.00;97767.53;4954150;28;20090;-76
2024/03/09 06:10:16;;;;;;;63.60;30.75;;;;;;;6.35;100.00;97761.31;4950480;29;20102;-75
2024/03/09 06:12:46;;;;;;;52.20;25.98;;;;;;;6.14;100.00;97754.22;4945907;28;20107;-76
2024/03/09 06:15:15;;;;;;;48.38;23.88;;;;;;;5.98;100.00;97768.13;4955587;28;20034;-75
2024/03/09 06:17:44;;;;;;;47.72;23.13;;;;;;;5.79;100.00;97772.41;4936510;28;20100;-75
2024/03/09 06:20:13;;;;;;;50.13;23.33;;;;;;;5.75;100.00;97780.56;4966782;28;20466;-76
2024/03/09 06:22:42;;;;;;;45.13;19.17;;;;;;;5.67;100.00;97783.50;4938427;29;20027;-78
2024/03/09 06:25:22;;;;;;;50.55;23.63;;;;;;;5.85;100.00;97787.22;4949130;28;20491;-76
2024/03/09 06:27:48;;;;;;;44.53;21.33;;;;;;;6.00;100.00;97792.81;4937833;28;20474;-76
2024/03/09 06:30:17;;;;;;;43.72;16.02;;;;;;;5.79;100.00;97788.31;4969315;28;20030;-80
2024/03/09 06:32:49;;;;;;;40.38;17.73;;;;;;;6.18;100.00;97791.22;4942408;28;20410;-79
2024/03/09 06:35:19;;;;;;;37.35;17.55;;;;;;;6.56;100.00;97784.31;4955419;28;20041;-76
2024/03/09 06:37:56;;;;;;;49.10;21.00;;;;;;;7.18;100.00;97778.94;4965489;28;20039;-75
2024/03/09 06:40:22;;;;;;;49.00;21.35;;;;;;;7.13;100.00;97766.78;4952191;29;20507;-77
2024/03/09 06:42:50;;;;;;;54.35;26.48;;;;;;;7.38;100.00;97770.06;4968676;28;20114;-76
2024/03/09 06:45:18;;;;;;;53.10;26.67;;;;;;;7.35;100.00;97759.56;4968117;28;20027;-76
2024/03/09 06:47:45;;;;;;;49.40;25.75;;;;;;;7.58;100.00;97768.19;4945475;29;20090;-75
2024/03/09 06:50:14;;;;;;;50.53;25.25;;;;;;;8.23;100.00;97773.97;4945430;28;20035;-77
2024/03/09 06:52:39;;;;;;;52.20;25.05;;;;;;;8.64;100.00;97770.16;4963171;28;20027;-76
2024/03/09 06:55:05;;;;;;;42.80;23.05;;;;;;;10.42;100.00;97729.22;4962492;28;20429;-75
2024/03/09 06:57:35;;;;;;;42.45;21.17;;;;;;;10.88;100.00;97736.25;4953656;28;20053;-75
2024/03/09 07:00:11;;;;;;;43.88;22.80;;;;;;;11.01;100.00;97721.19;4947759;28;20509;-78
2024/03/09 07:02:38;;;;;;;86.30;44.55;;;;;;;10.30;100.00;97746.84;4943977;28;20527;-75
2024/03/09 07:05:04;;;;;;;43.28;20.88;;;;;;;10.20;100.00;97738.50;4967008;28;20474;-76
2024/03/09 07:07:33;;;;;;;37.85;19.23;;;;;;;9.49;100.00;97744.28;4943986;28;20106;-75
2024/03/09 07:09:59;;;;;;;41.20;19.17;;;;;;;9.18;100.00;97750.41;4966184;28;20491;-74
2024/03/09 07:12:25;;;;;;;34.63;19.17;;;;;;;9.67;100.00;97751.28;4952870;28;20066;-79
2024/03/09 07:14:50;;;;;;;34.80;17.38;;;;;;;10.06;100.00;97746.38;4947423;28;20063;-78
2024/03/09 07:17:17;;;;;;;37.30;19.15;;;;;;;9.98;100.00;97737.94;4935114;28;20102;-75
2024/03/09 07:19:45;;;;;;;36.15;18.90;;;;;;;10.47;100.00;97736.03;4951631;28;20410;-76
2024/03/09 07:22:13;;;;;;;35.35;18.80;;;;;;;11.52;100.00;97737.63;4968018;28;20122;-78
2024/03/09 07:24:42;;;;;;;36.65;19.27;;;;;;;11.99;100.00;97727.47;4967646;28;20038;-78
2024/03/09 07:27:08;;;;;;;34.72;19.73;;;;;;;12.64;96.49;97720.44;4967613;28;20645;-76
2024/03/09 07:29:35;;;;;;;36.15;19.95;;;;;;;12.38;96.07;97724.88;4964578;28;20038;-77
2024/03/09 07:32:02;;;;;;;42.92;20.83;;;;;;;12.92;91.28;97714.06;4962443;28;20054;-77
2024/03/09 07:34:28;;;;;;;46.90;20.98;;;;;;;12.65;91.03;97715.91;4968764;28;20038;-78
2024/03/09 07:36:55;;;;;;;41.92;22.05;;;;;;;12.24;96.97;97722.22;4949350;28;20028;-78
2024/03/09 07:39:23;;;;;;;39.92;20.85;;;;;;;11.31;100.00;97721.09;4947835;28;20043;-76
2024/03/09 07:41:49;;;;;;;38.00;20.17;;;;;;;10.54;100.00;97736.53;4947795;28;20039;-77
2024/03/09 07:44:14;;;;;;;34.20;17.63;;;;;;;10.36;100.00;97738.47;4963616;28;20475;-77
2024/03/09 07:46:40;;;;;;;28.13;14.80;;;;;;;10.75;100.00;97748.63;4956646;28;20043;-78
2024/03/09 07:49:06;;;;;;;29.70;15.65;;;;;;;11.37;100.00;97743.00;4949399;28;20035;-76
2024/03/09 07:51:35;;;;;;;156.48;83.90;;;;;;;11.72;100.00;97729.25;4948030;28;20035;-78
2024/03/09 07:54:02;;;;;;;50.60;26.10;;;;;;;11.39;100.00;97743.75;4947816;28;20123;-77
2024/03/09 07:56:28;;;;;;;31.00;17.30;;;;;;;10.96;100.00;97742.00;4957993;28;20059;-77
2024/03/09 07:58:54;;;;;;;20.63;11.18;;;;;;;10.73;100.00;97747.88;4954749;28;20118;-76
2024/03/09 08:01:20;;;;;;;22.00;10.95;;;;;;;11.23;100.00;97748.34;4939210;29;20449;-77
2024/03/09 08:03:46;;;;;;;30.73;14.40;;;;;;;11.03;100.00;97746.03;4966827;28;20106;-77
2024/03/09 08:06:11;;;;;;;43.70;22.45;;;;;;;10.94;100.00;97741.22;4965939;28;20118;-78
2024/03/09 08:08:37;;;;;;;24.02;12.25;;;;;;;11.35;100.00;97749.44;4951286;28;20038;-77
2024/03/09 08:11:03;;;;;;;25.40;12.48;;;;;;;11.71;100.00;97730.22;4954838;28;20034;-77
2024/03/09 08:13:30;;;;;;;25.60;12.48;;;;;;;12.38;100.00;97727.56;4971981;28;20031;-78
2024/03/09 08:15:56;;;;;;;24.60;11.32;;;;;;;12.68;98.20;97726.44;4971645;28;20050;-77
2024/03/09 08:18:22;;;;;;;23.80;12.70;;;;;;;12.67;98.46;97720.25;4958249;28;20098;-77
2024/03/09 08:20:49;;;;;;;25.25;11.98;;;;;;;12.90;97.22;97715.97;4950964;28;20031;-76
2024/03/09 08:23:17;;;;;;;24.25;13.02;;;;;;;13.07;96.13;97718.38;4954219;28;20426;-77
2024/03/09 08:25:42;;;;;;;26.58;13.15;;;;;;;13.04;97.15;97719.44;4962175;28;20046;-76
2024/03/09 08:28:09;;;;;;;29.05;13.63;;;;;;;13.11;96.54;97719.03;4950780;28;20036;-76
2024/03/09 08:30:34;;;;;;;29.70;15.95;;;;;;;13.65;89.91;97717.84;4952631;28;20038;-76
2024/03/09 08:33:01;;;;;;;27.63;13.95;;;;;;;13.73;89.76;97722.66;4950574;28;20031;-78
2024/03/09 08:35:28;;;;;;;29.88;15.38;;;;;;;13.02;93.31;97726.75;4950966;28;20502;-78
2024/03/09 08:37:53;;;;;;;26.85;14.30;;;;;;;13.20;91.87;97718.38;4959853;28;20102;-77
2024/03/09 08:40:23;;;;;;;36.65;18.42;;;;;;;12.37;95.58;97722.28;4952019;28;20039;-78
2024/03/09 08:42:51;;;;;;;27.63;14.70;;;;;;;12.32;100.00;97730.63;4957960;28;20029;-76
2024/03/09 08:45:21;;;;;;;35.17;17.15;;;;;;;12.95;98.99;97725.44;4939470;28;22757;-76
2024/03/09 08:47:52;;;;;;;27.45;15.63;;;;;;;12.96;98.38;97728.97;4970130;28;20026;-76
2024/03/09 08:50:19;;;;;;;28.45;15.43;;;;;;;12.88;100.00;97720.59;4967283;28;20129;-76
2024/03/09 08:52:47;;;;;;;31.63;15.65;;;;;;;12.95;100.00;97727.28;4960149;28;20031;-78
2024/03/09 08:55:14;;;;;;;36.17;15.35;;;;;;;13.54;93.89;97721.28;4967812;28;20510;-78
2024/03/09 08:57:41;;;;;;;30.70;16.02;;;;;;;13.67;90.51;97710.53;4965028;28;20027;-78
2024/03/09 09:00:08;;;;;;;43.22;17.45;;;;;;;13.94;91.91;97719.28;4951749;28;20035;-76
2024/03/09 09:02:37;;;;;;;37.47;18.85;;;;;;;14.46;88.60;97708.25;4962850;28;20026;-78
2024/03/09 09:05:11;;;;;;;32.88;16.25;;;;;;;14.26;83.89;97695.41;4971124;28;20027;-78
2024/03/09 09:07:38;;;;;;;29.90;16.35;;;;;;;14.04;87.58;97706.91;4956897;28;20026;-79
2024/03/09 09:10:04;;;;;;;31.05;16.65;;;;;;;14.03;88.73;97701.63;4969112;28;20114;-79
2024/03/09 09:12:30;;;;;;;31.75;16.73;;;;;;;14.99;83.58;97684.47;4959516;28;20030;-79
2024/03/09 09:14:56;;;;;;;33.10;16.48;;;;;;;14.98;81.95;97690.84;4950212;28;20023;-77
2024/03/09 09:17:22;;;;;;;28.80;15.70;;;;;;;14.97;84.89;97695.38;4951343;28;20035;-78
2024/03/09 09:19:48;;;;;;;38.25;18.00;;;;;;;15.12;88.58;97701.41;4950718;28;20045;-77
2024/03/09 09:22:16;;;;;;;27.52;14.50;;;;;;;14.44;82.78;97694.06;4968539;28;20467;-79
2024/03/09 09:24:41;;;;;;;35.20;17.48;;;;;;;14.07;91.32;97693.22;4956979;28;20023;-77
2024/03/09 09:27:09;;;;;;;35.40;18.33;;;;;;;14.50;95.78;97696.28;4967044;28;20022;-77
2024/03/09 09:29:35;;;;;;;27.75;16.02;;;;;;;15.58;85.70;97683.34;4944881;28;20039;-79
2024/03/09 09:32:00;;;;;;;30.63;17.48;;;;;;;17.27;70.35;97665.50;4952786;28;20089;-78
2024/03/09 09:34:28;;;;;;;27.67;16.67;;;;;;;18.66;61.74;97660.16;4959676;28;20042;-78
2024/03/09 09:36:54;;;;;;;22.48;10.10;;;;;;;17.73;57.27;97634.44;4963496;28;20034;-78
2024/03/09 09:39:29;;;;;;;26.67;13.68;;;;;;;16.30;64.46;97656.75;4950503;28;20100;-78
2024/03/09 09:41:56;;;;;;;12.70;7.28;;;;;;;16.17;61.79;97648.81;4937776;29;20111;-77
2024/03/09 09:44:22;;;;;;;11.50;6.55;;;;;;;16.92;60.75;97656.03;4957570;28;20073;-78
2024/03/09 09:46:48;;;;;;;14.48;8.20;;;;;;;16.93;58.48;97641.50;4969037;28;20030;-78
2024/03/09 09:49:14;;;;;;;10.15;6.05;;;;;;;15.94;59.73;97648.97;4969132;28;20030;-78
2024/03/09 09:51:43;;;;;;;12.77;7.35;;;;;;;16.03;61.16;97653.63;4968708;28;20546;-77
2024/03/09 09:54:10;;;;;;;12.07;7.97;;;;;;;15.79;63.92;97658.31;4953227;28;20054;-78
2024/03/09 09:56:36;;;;;;;16.08;9.10;;;;;;;15.92;62.42;97648.25;4958147;28;20102;-77
2024/03/09 09:59:01;;;;;;;10.02;5.78;;;;;;;16.00;62.26;97635.84;4950953;28;20138;-77
2024/03/09 10:01:27;;;;;;;8.73;5.30;;;;;;;16.49;59.47;97648.00;4952895;28;20034;-78
2024/03/09 10:03:53;;;;;;;10.88;6.07;;;;;;;16.99;57.02;97635.59;4964316;28;20027;-77
2024/03/09 10:06:22;;;;;;;13.80;6.60;;;;;;;17.43;55.77;97629.00;4958601;28;20041;-77
2024/03/09 10:08:52;;;;;;;10.77;6.45;;;;;;;17.18;54.77;97617.66;4968889;28;20492;-78
2024/03/09 10:11:23;;;;;;;12.23;7.75;;;;;;;16.77;57.91;97642.84;4965120;28;20116;-77
2024/03/09 10:13:54;;;;;;;12.10;7.18;;;;;;;18.41;53.82;97629.03;4961029;28;20055;-78
2024/03/09 10:16:31;;;;;;;11.10;5.93;;;;;;;19.07;49.90;97617.47;4959713;28;20034;-76
2024/03/09 10:18:58;;;;;;;9.07;6.32;;;;;;;19.51;49.73;97614.06;4953039;28;20097;-77
2024/03/09 10:21:37;;;;;;;12.82;7.28;;;;;;;19.00;49.93;97610.91;4970215;28;20034;-77
2024/03/09 10:24:07;;;;;;;9.18;7.00;;;;;;;19.25;50.08;97611.13;4942044;28;20058;-76
2024/03/09 10:26:34;;;;;;;11.00;6.40;;;;;;;19.34;48.53;97601.25;4938603;28;20045;-77
2024/03/09 10:29:00;;;;;;;8.93;6.53;;;;;;;19.01;48.94;97604.50;4948703;28;20183;-76
2024/03/09 10:31:26;;;;;;;15.50;6.97;;;;;;;19.52;48.94;97596.78;4932915;28;20027;-77
2024/03/09 10:33:56;;;;;;;11.80;6.97;;;;;;;20.72;46.15;97599.19;4948991;28;20034;-77
2024/03/09 10:36:23;;;;;;;13.73;9.85;;;;;;;20.96;45.52;97598.53;4958353;28;20114;-77
2024/03/09 10:38:51;;;;;;;8.85;5.63;;;;;;;20.92;44.54;97580.81;4956312;28;20499;-77
2024/03/09 10:41:21;;;;;;;10.45;6.30;;;;;;;21.45;43.22;97573.38;4969486;28;20089;-77
2024/03/09 10:43:47;;;;;;;8.75;6.18;;;;;;;21.98;43.15;97575.00;4947387;28;20031;-77
2024/03/09 10:46:18;;;;;;;14.18;8.10;;;;;;;22.14;43.02;97558.69;4949032;28;20039;-76
2024/03/09 10:48:48;;;;;;;9.93;6.47;;;;;;;22.99;41.46;97571.91;4948544;28;20031;-77
2024/03/09 10:51:36;;;;;;;9.52;6.25;;;;;;;24.12;39.54;97560.69;4962361;28;20399;-78
2024/03/09 10:54:26;;;;;;;8.75;6.30;;;;;;;24.49;38.70;97554.50;4962921;28;20130;-77
2024/03/09 10:56:53;;;;;;;11.70;6.47;;;;;;;25.08;37.54;97550.09;4948587;28;20046;-78
2024/03/09 10:59:22;;;;;;;10.07;6.47;;;;;;;25.92;36.36;97540.63;4948854;28;20043;-77
2024/03/09 11:01:50;;;;;;;9.05;6.93;;;;;;;25.62;36.53;97528.84;4932342;28;20109;-77
2024/03/09 11:04:16;;;;;;;8.07;5.22;;;;;;;26.34;35.34;97527.03;4948884;28;20039;-77
2024/03/09 11:06:45;;;;;;;6.68;5.28;;;;;;;26.12;34.63;97524.41;4948369;28;20101;-77
2024/03/09 11:09:13;;;;;;;7.53;5.40;;;;;;;25.39;36.10;97530.78;4954219;28;20451;-78
2024/03/09 11:11:40;;;;;;;7.90;5.18;;;;;;;25.28;36.06;97529.38;4958366;28;20125;-77
2024/03/09 11:14:08;;;;;;;10.82;6.82;;;;;;;26.51;34.75;97518.56;4952070;28;20030;-77
2024/03/09 11:16:33;;;;;;;8.88;5.30;;;;;;;27.19;33.43;97518.78;4935007;28;20067;-78
2024/03/09 11:19:00;;;;;;;7.22;5.50;;;;;;;26.51;33.80;97505.69;4926776;29;20063;-78
2024/03/09 11:21:29;;;;;;;7.85;5.57;;;;;;;25.56;35.87;97513.16;4930872;29;20035;-77
2024/03/09 11:23:59;;;;;;;8.27;5.07;;;;;;;25.97;35.04;97499.78;4935218;28;20042;-79
2024/03/09 11:26:26;;;;;;;12.63;5.55;;;;;;;25.93;34.22;97482.03;4951165;28;20035;-78